createdAt,value
2023-06-16T00:01:32.633Z,21.30
2023-06-16T00:06:34.700Z,11.90
2023-06-16T00:11:36.673Z,10.50
2023-06-16T00:16:38.487Z,11.80
2023-06-16T00:21:42.773Z,14.00
2023-06-16T00:26:44.469Z,18.00
2023-06-16T00:31:46.666Z,11.90
2023-06-16T00:36:48.372Z,16.00
2023-06-16T00:41:51.949Z,18.00
2023-06-16T00:46:54.436Z,15.30
2023-06-16T00:51:56.814Z,15.50
2023-06-16T00:57:00.448Z,19.70
2023-06-16T01:02:03.373Z,11.80
2023-06-16T01:07:12.994Z,12.10
2023-06-16T01:12:53.375Z,15.90
2023-06-16T01:18:00.989Z,16.10
2023-06-16T01:23:26.502Z,11.20
2023-06-16T01:28:31.616Z,16.20
2023-06-16T01:33:34.714Z,11.40
2023-06-16T01:38:37.589Z,12.70
2023-06-16T01:43:40.518Z,14.10
2023-06-16T01:48:42.364Z,15.30
2023-06-16T01:53:44.066Z,13.80
2023-06-16T01:58:46.257Z,12.80
2023-06-16T02:04:00.199Z,14.80
2023-06-16T02:09:05.822Z,13.70
2023-06-16T02:14:08.195Z,11.40
2023-06-16T02:19:11.066Z,17.50
2023-06-16T02:24:13.004Z,11.90
2023-06-16T02:29:14.773Z,12.00
2023-06-16T02:34:17.777Z,14.80
2023-06-16T02:39:20.240Z,15.20
2023-06-16T02:44:23.203Z,18.70
2023-06-16T02:49:25.069Z,17.50
2023-06-16T02:54:26.855Z,16.80
2023-06-16T02:59:30.101Z,13.30
2023-06-16T03:04:31.918Z,19.80
2023-06-16T03:09:41.505Z,13.50
2023-06-16T03:14:43.925Z,20.60
2023-06-16T03:19:49.664Z,11.20
2023-06-16T03:24:53.837Z,22.00
2023-06-16T03:29:55.643Z,11.70
2023-06-16T03:34:58.264Z,17.80
2023-06-16T03:40:07.021Z,16.50
2023-06-16T03:45:10.330Z,12.40
2023-06-16T03:50:12.174Z,11.50
2023-06-16T03:55:16.254Z,14.70
2023-06-16T04:00:18.691Z,11.30
2023-06-16T04:07:13.409Z,10.60
2023-06-16T04:12:16.670Z,10.20
2023-06-16T04:17:18.504Z,10.40
2023-06-16T04:22:32.493Z,17.00
2023-06-16T04:27:34.632Z,12.60
2023-06-16T04:32:37.826Z,11.70
2023-06-16T04:37:43.229Z,12.20
2023-06-16T04:42:48.484Z,10.30
2023-06-16T04:47:53.941Z,12.30
2023-06-16T04:52:55.943Z,10.60
2023-06-16T04:57:57.677Z,9.20
2023-06-16T05:02:59.574Z,9.40
2023-06-16T05:08:02.236Z,10.20
2023-06-16T05:13:04.009Z,14.20
2023-06-16T05:18:06.883Z,9.60
2023-06-16T05:23:09.285Z,8.40
2023-06-16T05:28:11.465Z,10.00
2023-06-16T05:33:14.310Z,12.80
2023-06-16T05:38:17.142Z,10.10
2023-06-16T05:43:19.480Z,10.00
2023-06-16T05:48:21.569Z,11.20
2023-06-16T05:53:23.552Z,9.60
2023-06-16T05:58:25.694Z,13.40
2023-06-16T06:03:28.724Z,9.40
2023-06-16T06:08:30.928Z,8.30
2023-06-16T06:13:33.868Z,8.00
2023-06-16T06:18:35.888Z,7.60
2023-06-16T06:23:37.793Z,7.20
2023-06-16T06:28:39.975Z,7.30
2023-06-16T06:33:42.458Z,7.10
2023-06-16T06:38:44.269Z,7.60
2023-06-16T06:43:46.399Z,6.20
2023-06-16T06:48:52.386Z,9.60
2023-06-16T06:53:55.813Z,4.10
2023-06-16T06:58:57.621Z,4.60
2023-06-16T07:03:59.441Z,5.20
2023-06-16T07:09:01.302Z,4.10
2023-06-16T07:14:03.117Z,4.50
2023-06-16T07:19:04.891Z,6.30
2023-06-16T07:24:07.208Z,5.60
2023-06-16T07:29:08.914Z,5.30
2023-06-16T07:34:10.718Z,6.40
2023-06-16T07:39:12.631Z,7.50
2023-06-16T07:44:14.402Z,12.90
2023-06-16T07:49:16.334Z,5.60
2023-06-16T07:54:18.263Z,4.90
2023-06-16T07:59:19.996Z,5.10
2023-06-16T08:04:21.855Z,4.80
2023-06-16T08:09:24.530Z,8.80
2023-06-16T08:14:27.237Z,5.40
2023-06-16T08:19:28.990Z,5.00
2023-06-16T08:24:31.799Z,4.60
2023-06-16T08:29:34.383Z,4.60
2023-06-16T08:34:37.590Z,6.60
2023-06-16T08:39:39.276Z,7.50
2023-06-16T08:44:41.618Z,4.10
2023-06-16T08:49:44.404Z,4.30
2023-06-16T08:54:49.633Z,4.30
2023-06-16T08:59:56.242Z,4.70
2023-06-16T09:04:59.772Z,4.60
2023-06-16T09:10:02.167Z,6.00
2023-06-16T09:15:09.665Z,4.70
2023-06-16T09:20:16.594Z,5.10
2023-06-16T09:25:20.064Z,4.20
2023-06-16T09:30:23.297Z,5.10
2023-06-16T09:35:27.893Z,5.00
2023-06-16T09:40:34.458Z,4.10
2023-06-16T09:45:36.747Z,4.40
2023-06-16T09:50:41.547Z,3.80
2023-06-16T09:55:43.352Z,4.20
2023-06-16T10:00:46.162Z,4.80
2023-06-16T10:05:53.919Z,4.10
2023-06-16T10:10:55.747Z,3.80
2023-06-16T10:16:00.650Z,4.30
2023-06-16T10:21:03.394Z,3.80
2023-06-16T10:26:06.711Z,4.00
2023-06-16T10:31:12.334Z,4.00
2023-06-16T10:36:21.609Z,4.30
2023-06-16T10:41:25.143Z,3.60
2023-06-16T10:46:27.221Z,4.30
2023-06-16T10:51:58.068Z,3.80
2023-06-16T11:02:19.808Z,3.50
2023-06-16T11:07:34.717Z,3.80
2023-06-16T11:12:38.432Z,3.50
2023-06-16T11:17:43.474Z,3.60
2023-06-16T11:22:45.390Z,10.90
2023-06-16T11:27:47.423Z,4.70
2023-06-16T11:32:49.462Z,3.90
2023-06-16T11:37:57.943Z,3.40
2023-06-16T11:43:00.710Z,5.00
2023-06-16T11:48:04.637Z,4.70
2023-06-16T11:53:06.542Z,3.70
2023-06-16T11:58:08.319Z,4.00
2023-06-16T12:03:11.048Z,4.00
2023-06-16T12:08:12.855Z,4.30
2023-06-16T12:13:14.565Z,4.40
2023-06-16T12:18:16.694Z,5.20
2023-06-16T12:23:21.491Z,3.60
2023-06-16T12:28:23.230Z,6.10
2023-06-16T12:33:26.639Z,4.60
2023-06-16T12:38:33.083Z,4.10
2023-06-16T12:43:36.897Z,3.40
2023-06-16T12:48:38.605Z,3.40
2023-06-16T12:53:45.831Z,3.30
2023-06-16T12:58:47.864Z,4.60
2023-06-16T13:03:49.724Z,3.60
2023-06-16T13:08:51.616Z,2.50
2023-06-16T13:13:53.904Z,3.30
2023-06-16T13:18:55.601Z,3.40
2023-06-16T13:23:57.561Z,3.30
2023-06-16T13:29:00.226Z,3.40
2023-06-16T13:34:02.917Z,3.30
2023-06-16T13:39:05.456Z,3.10
2023-06-16T13:44:07.349Z,5.90
2023-06-16T13:49:11.396Z,2.30
2023-06-16T13:54:14.349Z,3.60
2023-06-16T13:59:16.057Z,5.40
2023-06-16T14:04:17.827Z,2.40
2023-06-16T14:09:19.583Z,2.60
2023-06-16T14:14:21.717Z,3.30
2023-06-16T14:19:24.914Z,3.00
2023-06-16T14:24:26.926Z,2.80
2023-06-16T14:29:28.807Z,3.40
2023-06-16T14:34:30.934Z,2.50
2023-06-16T14:39:32.698Z,2.90
2023-06-16T14:44:34.626Z,3.50
2023-06-16T14:49:36.307Z,2.80
2023-06-16T14:54:38.438Z,3.20
2023-06-16T14:59:40.223Z,3.00
2023-06-16T15:04:41.976Z,4.70
2023-06-16T15:09:43.736Z,3.80
2023-06-16T15:14:45.455Z,3.30
2023-06-16T15:19:47.126Z,2.80
2023-06-16T15:24:48.908Z,3.00
2023-06-16T15:29:50.838Z,3.30
2023-06-16T15:34:52.642Z,4.00
2023-06-16T15:39:54.580Z,2.30
2023-06-16T15:44:56.305Z,3.30
2023-06-16T15:49:57.985Z,2.40
2023-06-16T15:54:59.638Z,3.40
2023-06-16T16:00:01.461Z,3.00
2023-06-16T16:05:06.474Z,2.70
2023-06-16T16:10:09.068Z,2.40
2023-06-16T16:15:11.415Z,3.60
2023-06-16T16:20:13.244Z,3.50
2023-06-16T16:25:14.999Z,3.10
2023-06-16T16:30:16.882Z,3.20
2023-06-16T16:35:19.393Z,4.30
2023-06-16T16:40:21.456Z,3.60
2023-06-16T16:45:23.420Z,3.00
2023-06-16T16:50:25.153Z,3.70
2023-06-16T16:55:36.482Z,5.70
2023-06-16T17:00:38.816Z,3.30
2023-06-16T17:05:40.627Z,3.20
2023-06-16T17:10:42.465Z,3.80
2023-06-16T17:15:44.390Z,5.50
2023-06-16T17:20:46.206Z,3.90
2023-06-16T17:25:47.950Z,3.00
2023-06-16T17:30:49.688Z,3.40
2023-06-16T17:35:51.459Z,5.40
2023-06-16T17:40:56.484Z,4.80
2023-06-16T17:45:58.245Z,3.40
2023-06-16T17:50:59.940Z,4.10
2023-06-16T17:56:05.223Z,4.30
2023-06-16T18:01:07.213Z,4.50
2023-06-16T18:06:11.356Z,4.30
2023-06-16T18:11:13.023Z,5.00
2023-06-16T18:16:14.794Z,4.30
2023-06-16T18:21:16.628Z,5.20
2023-06-16T18:26:18.436Z,8.90
2023-06-16T18:31:21.431Z,4.90
2023-06-16T18:36:23.139Z,7.10
2023-06-16T18:41:24.896Z,4.90
2023-06-16T18:46:26.650Z,5.90
2023-06-16T18:51:29.809Z,7.00
2023-06-16T18:56:33.443Z,30.50
2023-06-16T19:01:37.237Z,10.20
2023-06-16T19:06:39.068Z,8.10
2023-06-16T19:11:40.775Z,7.70
2023-06-16T19:16:42.791Z,6.30
2023-06-16T19:21:44.517Z,5.90
2023-06-16T19:26:46.281Z,5.70
2023-06-16T19:31:50.344Z,6.30
2023-06-16T19:36:53.281Z,5.50
2023-06-16T19:41:55.021Z,7.20
2023-06-16T19:46:57.074Z,7.60
2023-06-16T19:51:59.012Z,6.20
2023-06-16T19:57:00.933Z,5.90
2023-06-16T20:02:03.427Z,5.50
2023-06-16T20:07:07.325Z,5.20
2023-06-16T20:12:09.675Z,5.80
2023-06-16T20:17:11.475Z,7.40
2023-06-16T20:22:13.520Z,5.00
2023-06-16T20:27:15.458Z,4.40
2023-06-16T20:32:17.290Z,8.80
2023-06-16T20:37:19.074Z,7.60
2023-06-16T20:42:23.383Z,8.60
2023-06-16T20:47:26.132Z,9.70
2023-06-16T20:52:28.895Z,8.20
2023-06-16T20:57:30.585Z,7.70
2023-06-16T21:02:34.966Z,6.10
2023-06-16T21:07:38.692Z,6.10
2023-06-16T21:12:40.749Z,5.60
2023-06-16T21:17:46.545Z,5.00
2023-06-16T21:22:50.871Z,6.60
2023-06-16T21:27:52.713Z,7.40
2023-06-16T21:33:00.348Z,7.40
2023-06-16T21:38:04.014Z,6.70
2023-06-16T21:43:05.823Z,5.80
2023-06-16T21:48:07.727Z,6.20
2023-06-16T21:53:10.710Z,6.20
2023-06-16T21:58:15.611Z,5.60
2023-06-16T22:03:19.256Z,8.20
2023-06-16T22:08:22.059Z,6.20
2023-06-16T22:13:23.771Z,8.40
2023-06-16T22:18:26.070Z,9.80
2023-06-16T22:23:28.105Z,6.90
2023-06-16T22:28:30.259Z,7.80
2023-06-16T22:33:32.081Z,7.10
2023-06-16T22:38:34.353Z,7.20
2023-06-16T22:43:36.482Z,6.90
2023-06-16T22:48:42.075Z,7.90
2023-06-16T22:53:44.510Z,9.20
2023-06-16T22:58:46.340Z,8.10
2023-06-16T23:03:48.155Z,8.00
2023-06-16T23:08:50.104Z,8.60
2023-06-16T23:13:58.464Z,7.90
2023-06-16T23:19:01.305Z,7.40
2023-06-16T23:24:06.304Z,9.00
2023-06-16T23:29:08.303Z,11.70
2023-06-16T23:34:10.064Z,10.10
2023-06-16T23:39:12.227Z,9.70
2023-06-16T23:44:13.985Z,10.30
2023-06-16T23:49:15.669Z,7.90
2023-06-16T23:54:18.321Z,11.20
2023-06-16T23:59:22.406Z,9.60
